sensor_id;sensor_type;location;lat;lon;timestamp;P1;durP1;ratioP1;P2;durP2;ratioP2
2562;SDS011;1291;51.420;6.970;2022-09-27T00:01:59;13.32;;;8.02;;
2562;SDS011;1291;51.420;6.970;2022-09-27T00:04:25;10.98;;;8.15;;
2562;SDS011;1291;51.420;6.970;2022-09-27T00:06:54;14.80;;;8.82;;
2562;SDS011;1291;51.420;6.970;2022-09-27T00:09:20;12.60;;;8.43;;
2562;SDS011;1291;51.420;6.970;2022-09-27T00:11:48;12.15;;;6.22;;
2562;SDS011;1291;51.420;6.970;2022-09-27T00:14:15;9.50;;;5.45;;
2562;SDS011;1291;51.420;6.970;2022-09-27T00:16:41;6.47;;;4.15;;
2562;SDS011;1291;51.420;6.970;2022-09-27T00:19:12;8.30;;;4.00;;
2562;SDS011;1291;51.420;6.970;2022-09-27T00:21:39;6.75;;;3.30;;
2562;SDS011;1291;51.420;6.970;2022-09-27T00:24:06;7.68;;;3.30;;
2562;SDS011;1291;51.420;6.970;2022-09-27T00:26:31;7.25;;;3.40;;
2562;SDS011;1291;51.420;6.970;2022-09-27T00:28:57;5.03;;;2.80;;
2562;SDS011;1291;51.420;6.970;2022-09-27T00:31:23;6.70;;;3.42;;
2562;SDS011;1291;51.420;6.970;2022-09-27T00:33:50;13.25;;;2.92;;
2562;SDS011;1291;51.420;6.970;2022-09-27T00:36:17;6.30;;;2.78;;
2562;SDS011;1291;51.420;6.970;2022-09-27T00:38:44;7.40;;;2.60;;
2562;SDS011;1291;51.420;6.970;2022-09-27T00:41:17;3.08;;;2.17;;
2562;SDS011;1291;51.420;6.970;2022-09-27T00:43:47;8.50;;;2.15;;
2562;SDS011;1291;51.420;6.970;2022-09-27T00:46:25;6.35;;;2.17;;
2562;SDS011;1291;51.420;6.970;2022-09-27T00:49:00;5.85;;;2.47;;
2562;SDS011;1291;51.420;6.970;2022-09-27T00:51:50;4.78;;;1.60;;
2562;SDS011;1291;51.420;6.970;2022-09-27T00:54:20;7.05;;;2.40;;
2562;SDS011;1291;51.420;6.970;2022-09-27T00:56:49;7.32;;;2.97;;
2562;SDS011;1291;51.420;6.970;2022-09-27T00:59:18;4.05;;;2.45;;
2562;SDS011;1291;51.420;6.970;2022-09-27T01:01:49;7.30;;;3.33;;
2562;SDS011;1291;51.420;6.970;2022-09-27T01:04:16;13.55;;;3.17;;
2562;SDS011;1291;51.420;6.970;2022-09-27T01:06:46;10.52;;;4.05;;
2562;SDS011;1291;51.420;6.970;2022-09-27T01:09:12;8.50;;;4.65;;
2562;SDS011;1291;51.420;6.970;2022-09-27T01:12:15;17.83;;;7.65;;
2562;SDS011;1291;51.420;6.970;2022-09-27T01:17:12;13.38;;;8.65;;
2562;SDS011;1291;51.420;6.970;2022-09-27T01:31:01;14.48;;;6.43;;
2562;SDS011;1291;51.420;6.970;2022-09-27T01:42:26;11.73;;;7.10;;
2562;SDS011;1291;51.420;6.970;2022-09-27T01:45:02;9.82;;;6.32;;
2562;SDS011;1291;51.420;6.970;2022-09-27T01:47:42;11.98;;;6.57;;
2562;SDS011;1291;51.420;6.970;2022-09-27T01:50:18;13.18;;;6.70;;
2562;SDS011;1291;51.420;6.970;2022-09-27T01:52:50;10.57;;;6.03;;
2562;SDS011;1291;51.420;6.970;2022-09-27T01:55:22;8.73;;;5.88;;
2562;SDS011;1291;51.420;6.970;2022-09-27T01:57:57;8.10;;;6.53;;
2562;SDS011;1291;51.420;6.970;2022-09-27T02:00:27;12.55;;;5.65;;
2562;SDS011;1291;51.420;6.970;2022-09-27T02:05:23;10.32;;;5.63;;
2562;SDS011;1291;51.420;6.970;2022-09-27T02:07:57;7.22;;;5.53;;
2562;SDS011;1291;51.420;6.970;2022-09-27T02:10:38;8.32;;;5.10;;
2562;SDS011;1291;51.420;6.970;2022-09-27T02:13:13;8.48;;;5.30;;
2562;SDS011;1291;51.420;6.970;2022-09-27T02:18:58;11.35;;;5.05;;
2562;SDS011;1291;51.420;6.970;2022-09-27T02:21:36;6.75;;;4.60;;
2562;SDS011;1291;51.420;6.970;2022-09-27T02:24:12;10.13;;;5.30;;
2562;SDS011;1291;51.420;6.970;2022-09-27T02:26:44;5.30;;;4.25;;
2562;SDS011;1291;51.420;6.970;2022-09-27T02:29:18;6.28;;;4.38;;
2562;SDS011;1291;51.420;6.970;2022-09-27T02:31:48;5.88;;;4.22;;
2562;SDS011;1291;51.420;6.970;2022-09-27T02:34:15;6.35;;;3.92;;
2562;SDS011;1291;51.420;6.970;2022-09-27T02:36:48;6.07;;;4.15;;
2562;SDS011;1291;51.420;6.970;2022-09-27T02:39:15;5.70;;;4.55;;
2562;SDS011;1291;51.420;6.970;2022-09-27T02:41:41;3.95;;;3.50;;
2562;SDS011;1291;51.420;6.970;2022-09-27T02:44:08;7.80;;;3.72;;
2562;SDS011;1291;51.420;6.970;2022-09-27T02:46:44;5.90;;;3.70;;
2562;SDS011;1291;51.420;6.970;2022-09-27T02:54:47;7.00;;;4.20;;
2562;SDS011;1291;51.420;6.970;2022-09-27T03:00:15;11.93;;;4.15;;
2562;SDS011;1291;51.420;6.970;2022-09-27T03:02:50;7.00;;;3.90;;
2562;SDS011;1291;51.420;6.970;2022-09-27T03:05:29;6.10;;;4.43;;
2562;SDS011;1291;51.420;6.970;2022-09-27T03:08:01;6.97;;;3.97;;
2562;SDS011;1291;51.420;6.970;2022-09-27T03:10:28;4.78;;;4.00;;
2562;SDS011;1291;51.420;6.970;2022-09-27T03:12:54;12.60;;;5.63;;
2562;SDS011;1291;51.420;6.970;2022-09-27T03:15:22;5.95;;;5.13;;
2562;SDS011;1291;51.420;6.970;2022-09-27T03:17:48;9.15;;;5.60;;
2562;SDS011;1291;51.420;6.970;2022-09-27T03:20:13;5.05;;;4.55;;
2562;SDS011;1291;51.420;6.970;2022-09-27T03:22:40;6.18;;;4.00;;
2562;SDS011;1291;51.420;6.970;2022-09-27T03:25:06;7.57;;;3.58;;
2562;SDS011;1291;51.420;6.970;2022-09-27T03:27:32;5.93;;;3.28;;
2562;SDS011;1291;51.420;6.970;2022-09-27T03:29:58;6.38;;;3.13;;
2562;SDS011;1291;51.420;6.970;2022-09-27T03:32:23;5.85;;;3.00;;
2562;SDS011;1291;51.420;6.970;2022-09-27T03:34:50;6.82;;;3.25;;
2562;SDS011;1291;51.420;6.970;2022-09-27T03:37:15;5.22;;;3.35;;
2562;SDS011;1291;51.420;6.970;2022-09-27T03:39:41;5.28;;;3.70;;
2562;SDS011;1291;51.420;6.970;2022-09-27T03:42:07;6.05;;;4.13;;
2562;SDS011;1291;51.420;6.970;2022-09-27T03:44:32;8.63;;;4.82;;
2562;SDS011;1291;51.420;6.970;2022-09-27T03:46:58;6.40;;;4.85;;
2562;SDS011;1291;51.420;6.970;2022-09-27T03:49:25;8.40;;;6.40;;
2562;SDS011;1291;51.420;6.970;2022-09-27T03:51:51;13.18;;;7.10;;
2562;SDS011;1291;51.420;6.970;2022-09-27T03:54:18;10.65;;;7.07;;
2562;SDS011;1291;51.420;6.970;2022-09-27T03:56:44;12.10;;;8.00;;
2562;SDS011;1291;51.420;6.970;2022-09-27T03:59:09;11.73;;;7.68;;
2562;SDS011;1291;51.420;6.970;2022-09-27T04:01:35;9.23;;;7.55;;
2562;SDS011;1291;51.420;6.970;2022-09-27T04:04:01;15.90;;;7.68;;
2562;SDS011;1291;51.420;6.970;2022-09-27T04:06:27;10.07;;;7.30;;
2562;SDS011;1291;51.420;6.970;2022-09-27T04:08:53;10.43;;;6.88;;
2562;SDS011;1291;51.420;6.970;2022-09-27T04:11:19;11.10;;;7.13;;
2562;SDS011;1291;51.420;6.970;2022-09-27T04:13:44;11.40;;;7.07;;
2562;SDS011;1291;51.420;6.970;2022-09-27T04:16:12;10.35;;;5.70;;
2562;SDS011;1291;51.420;6.970;2022-09-27T04:18:38;9.80;;;4.82;;
2562;SDS011;1291;51.420;6.970;2022-09-27T04:21:03;7.03;;;4.90;;
2562;SDS011;1291;51.420;6.970;2022-09-27T04:23:29;5.78;;;4.40;;
2562;SDS011;1291;51.420;6.970;2022-09-27T04:25:54;8.20;;;4.18;;
2562;SDS011;1291;51.420;6.970;2022-09-27T04:28:20;6.72;;;4.75;;
2562;SDS011;1291;51.420;6.970;2022-09-27T04:30:46;7.90;;;4.35;;
2562;SDS011;1291;51.420;6.970;2022-09-27T04:33:12;7.28;;;3.80;;
2562;SDS011;1291;51.420;6.970;2022-09-27T04:35:38;4.95;;;3.22;;
2562;SDS011;1291;51.420;6.970;2022-09-27T04:38:21;8.00;;;3.88;;
2562;SDS011;1291;51.420;6.970;2022-09-27T04:40:48;8.52;;;3.63;;
2562;SDS011;1291;51.420;6.970;2022-09-27T04:43:17;8.73;;;4.30;;
2562;SDS011;1291;51.420;6.970;2022-09-27T04:45:43;7.82;;;3.83;;
2562;SDS011;1291;51.420;6.970;2022-09-27T04:48:09;8.77;;;4.32;;
2562;SDS011;1291;51.420;6.970;2022-09-27T04:50:34;7.85;;;3.80;;
2562;SDS011;1291;51.420;6.970;2022-09-27T04:53:00;5.70;;;3.22;;
2562;SDS011;1291;51.420;6.970;2022-09-27T04:55:28;8.00;;;3.80;;
2562;SDS011;1291;51.420;6.970;2022-09-27T04:57:54;9.73;;;3.88;;
2562;SDS011;1291;51.420;6.970;2022-09-27T05:00:19;8.18;;;3.85;;
2562;SDS011;1291;51.420;6.970;2022-09-27T05:02:45;5.38;;;3.33;;
2562;SDS011;1291;51.420;6.970;2022-09-27T05:05:12;10.85;;;3.33;;
2562;SDS011;1291;51.420;6.970;2022-09-27T05:07:38;5.82;;;3.22;;
2562;SDS011;1291;51.420;6.970;2022-09-27T05:10:04;4.75;;;2.67;;
2562;SDS011;1291;51.420;6.970;2022-09-27T05:12:30;6.80;;;2.70;;
2562;SDS011;1291;51.420;6.970;2022-09-27T05:14:56;6.70;;;2.72;;
2562;SDS011;1291;51.420;6.970;2022-09-27T05:17:22;8.68;;;3.47;;
2562;SDS011;1291;51.420;6.970;2022-09-27T05:19:48;6.85;;;2.20;;
2562;SDS011;1291;51.420;6.970;2022-09-27T05:22:14;12.15;;;2.55;;
2562;SDS011;1291;51.420;6.970;2022-09-27T05:24:42;4.50;;;2.05;;
2562;SDS011;1291;51.420;6.970;2022-09-27T05:27:14;7.38;;;2.80;;
2562;SDS011;1291;51.420;6.970;2022-09-27T05:29:46;6.18;;;2.45;;
2562;SDS011;1291;51.420;6.970;2022-09-27T05:32:12;5.72;;;2.92;;
2562;SDS011;1291;51.420;6.970;2022-09-27T05:34:38;4.55;;;2.50;;
2562;SDS011;1291;51.420;6.970;2022-09-27T05:37:04;5.53;;;2.67;;
2562;SDS011;1291;51.420;6.970;2022-09-27T05:39:29;5.38;;;2.45;;
2562;SDS011;1291;51.420;6.970;2022-09-27T05:41:55;5.30;;;3.10;;
2562;SDS011;1291;51.420;6.970;2022-09-27T05:44:21;8.20;;;3.20;;
2562;SDS011;1291;51.420;6.970;2022-09-27T05:46:47;7.28;;;2.63;;
2562;SDS011;1291;51.420;6.970;2022-09-27T05:49:13;6.15;;;2.60;;
2562;SDS011;1291;51.420;6.970;2022-09-27T05:51:38;5.25;;;2.20;;
2562;SDS011;1291;51.420;6.970;2022-09-27T05:54:04;5.97;;;2.58;;
2562;SDS011;1291;51.420;6.970;2022-09-27T05:56:29;5.45;;;2.25;;
2562;SDS011;1291;51.420;6.970;2022-09-27T05:58:55;6.78;;;2.33;;
2562;SDS011;1291;51.420;6.970;2022-09-27T06:01:21;7.43;;;2.58;;
2562;SDS011;1291;51.420;6.970;2022-09-27T06:03:47;6.03;;;2.50;;
2562;SDS011;1291;51.420;6.970;2022-09-27T06:06:13;4.65;;;2.20;;
2562;SDS011;1291;51.420;6.970;2022-09-27T06:08:40;6.53;;;2.13;;
2562;SDS011;1291;51.420;6.970;2022-09-27T06:11:09;7.68;;;2.53;;
2562;SDS011;1291;51.420;6.970;2022-09-27T06:13:38;8.35;;;2.80;;
2562;SDS011;1291;51.420;6.970;2022-09-27T06:16:05;5.72;;;2.60;;
2562;SDS011;1291;51.420;6.970;2022-09-27T06:18:32;7.80;;;2.33;;
2562;SDS011;1291;51.420;6.970;2022-09-27T06:20:58;6.30;;;2.80;;
2562;SDS011;1291;51.420;6.970;2022-09-27T06:23:24;4.18;;;3.00;;
2562;SDS011;1291;51.420;6.970;2022-09-27T06:25:51;9.00;;;3.20;;
2562;SDS011;1291;51.420;6.970;2022-09-27T06:28:18;7.43;;;3.08;;
2562;SDS011;1291;51.420;6.970;2022-09-27T06:30:45;7.60;;;3.75;;
2562;SDS011;1291;51.420;6.970;2022-09-27T06:33:13;13.05;;;4.55;;
2562;SDS011;1291;51.420;6.970;2022-09-27T06:35:40;8.93;;;4.15;;
2562;SDS011;1291;51.420;6.970;2022-09-27T06:38:07;6.18;;;3.70;;
2562;SDS011;1291;51.420;6.970;2022-09-27T06:40:35;5.20;;;3.83;;
2562;SDS011;1291;51.420;6.970;2022-09-27T06:43:04;8.43;;;3.47;;
2562;SDS011;1291;51.420;6.970;2022-09-27T06:45:33;9.18;;;3.58;;
2562;SDS011;1291;51.420;6.970;2022-09-27T06:48:06;6.03;;;2.85;;
2562;SDS011;1291;51.420;6.970;2022-09-27T06:50:34;7.47;;;2.97;;
2562;SDS011;1291;51.420;6.970;2022-09-27T06:53:01;4.38;;;2.80;;
2562;SDS011;1291;51.420;6.970;2022-09-27T06:55:27;6.65;;;2.45;;
2562;SDS011;1291;51.420;6.970;2022-09-27T06:57:55;9.15;;;2.75;;
2562;SDS011;1291;51.420;6.970;2022-09-27T07:00:41;5.20;;;2.53;;
2562;SDS011;1291;51.420;6.970;2022-09-27T07:03:07;3.45;;;2.22;;
2562;SDS011;1291;51.420;6.970;2022-09-27T07:05:35;7.75;;;2.50;;
2562;SDS011;1291;51.420;6.970;2022-09-27T07:08:01;4.70;;;2.40;;
2562;SDS011;1291;51.420;6.970;2022-09-27T07:10:28;5.65;;;2.33;;
2562;SDS011;1291;51.420;6.970;2022-09-27T07:12:56;3.95;;;1.85;;
2562;SDS011;1291;51.420;6.970;2022-09-27T07:15:29;4.03;;;2.33;;
2562;SDS011;1291;51.420;6.970;2022-09-27T07:17:57;4.20;;;2.33;;
2562;SDS011;1291;51.420;6.970;2022-09-27T07:20:27;5.25;;;2.13;;
2562;SDS011;1291;51.420;6.970;2022-09-27T07:22:56;6.38;;;2.47;;
2562;SDS011;1291;51.420;6.970;2022-09-27T07:25:22;7.15;;;2.30;;
2562;SDS011;1291;51.420;6.970;2022-09-27T07:27:49;5.00;;;2.85;;
2562;SDS011;1291;51.420;6.970;2022-09-27T07:30:14;7.13;;;3.13;;
2562;SDS011;1291;51.420;6.970;2022-09-27T07:32:41;4.38;;;3.05;;
2562;SDS011;1291;51.420;6.970;2022-09-27T07:35:07;5.28;;;3.50;;
2562;SDS011;1291;51.420;6.970;2022-09-27T07:37:35;8.13;;;3.90;;
2562;SDS011;1291;51.420;6.970;2022-09-27T07:40:02;9.00;;;4.47;;
2562;SDS011;1291;51.420;6.970;2022-09-27T07:42:31;6.50;;;3.63;;
2562;SDS011;1291;51.420;6.970;2022-09-27T07:44:56;5.38;;;3.00;;
2562;SDS011;1291;51.420;6.970;2022-09-27T07:47:25;8.40;;;3.15;;
2562;SDS011;1291;51.420;6.970;2022-09-27T07:50:00;5.00;;;2.65;;
2562;SDS011;1291;51.420;6.970;2022-09-27T07:52:26;3.67;;;2.50;;
2562;SDS011;1291;51.420;6.970;2022-09-27T07:54:54;3.88;;;1.80;;
2562;SDS011;1291;51.420;6.970;2022-09-27T07:57:21;5.47;;;1.80;;
2562;SDS011;1291;51.420;6.970;2022-09-27T07:59:46;3.72;;;2.33;;
2562;SDS011;1291;51.420;6.970;2022-09-27T08:02:15;4.68;;;1.92;;
2562;SDS011;1291;51.420;6.970;2022-09-27T08:04:41;3.10;;;1.63;;
2562;SDS011;1291;51.420;6.970;2022-09-27T08:07:13;2.35;;;1.73;;
2562;SDS011;1291;51.420;6.970;2022-09-27T08:09:39;9.60;;;2.10;;
2562;SDS011;1291;51.420;6.970;2022-09-27T08:12:05;3.25;;;2.10;;
2562;SDS011;1291;51.420;6.970;2022-09-27T08:14:30;3.50;;;1.48;;
2562;SDS011;1291;51.420;6.970;2022-09-27T08:16:57;3.75;;;2.10;;
2562;SDS011;1291;51.420;6.970;2022-09-27T08:19:22;4.07;;;2.60;;
2562;SDS011;1291;51.420;6.970;2022-09-27T08:21:50;3.95;;;2.30;;
2562;SDS011;1291;51.420;6.970;2022-09-27T08:24:19;5.45;;;2.40;;
2562;SDS011;1291;51.420;6.970;2022-09-27T08:26:45;5.63;;;2.28;;
2562;SDS011;1291;51.420;6.970;2022-09-27T08:29:11;9.00;;;2.38;;
2562;SDS011;1291;51.420;6.970;2022-09-27T08:31:37;2.38;;;2.13;;
2562;SDS011;1291;51.420;6.970;2022-09-27T08:34:03;5.40;;;2.30;;
2562;SDS011;1291;51.420;6.970;2022-09-27T08:36:29;2.67;;;2.20;;
2562;SDS011;1291;51.420;6.970;2022-09-27T08:38:56;3.72;;;2.28;;
2562;SDS011;1291;51.420;6.970;2022-09-27T08:47:01;5.72;;;2.40;;
2562;SDS011;1291;51.420;6.970;2022-09-27T08:52:39;3.72;;;2.20;;
2562;SDS011;1291;51.420;6.970;2022-09-27T08:55:54;3.60;;;2.10;;
2562;SDS011;1291;51.420;6.970;2022-09-27T08:58:01;4.38;;;2.22;;
2562;SDS011;1291;51.420;6.970;2022-09-27T09:00:35;3.60;;;2.42;;
2562;SDS011;1291;51.420;6.970;2022-09-27T09:03:01;3.85;;;2.45;;
2562;SDS011;1291;51.420;6.970;2022-09-27T09:05:30;2.38;;;2.17;;
2562;SDS011;1291;51.420;6.970;2022-09-27T09:10:33;5.68;;;2.55;;
2562;SDS011;1291;51.420;6.970;2022-09-27T09:18:52;2.25;;;1.80;;
2562;SDS011;1291;51.420;6.970;2022-09-27T09:29:38;2.95;;;1.55;;
2562;SDS011;1291;51.420;6.970;2022-09-27T09:35:08;2.97;;;1.25;;
2562;SDS011;1291;51.420;6.970;2022-09-27T09:37:40;2.20;;;1.63;;
2562;SDS011;1291;51.420;6.970;2022-09-27T09:42:53;3.53;;;1.60;;
2562;SDS011;1291;51.420;6.970;2022-09-27T09:48:42;3.92;;;2.00;;
2562;SDS011;1291;51.420;6.970;2022-09-27T09:51:17;5.50;;;2.25;;
2562;SDS011;1291;51.420;6.970;2022-09-27T09:53:59;2.55;;;1.90;;
2562;SDS011;1291;51.420;6.970;2022-09-27T09:56:35;4.38;;;2.13;;
2562;SDS011;1291;51.420;6.970;2022-09-27T09:59:19;3.38;;;2.03;;
2562;SDS011;1291;51.420;6.970;2022-09-27T10:02:01;5.38;;;2.20;;
2562;SDS011;1291;51.420;6.970;2022-09-27T10:04:43;3.20;;;2.58;;
2562;SDS011;1291;51.420;6.970;2022-09-27T10:07:09;4.70;;;2.58;;
2562;SDS011;1291;51.420;6.970;2022-09-27T10:09:34;2.38;;;2.17;;
2562;SDS011;1291;51.420;6.970;2022-09-27T10:12:00;2.90;;;2.42;;
2562;SDS011;1291;51.420;6.970;2022-09-27T10:14:26;3.58;;;2.58;;
2562;SDS011;1291;51.420;6.970;2022-09-27T10:16:53;3.42;;;2.65;;
2562;SDS011;1291;51.420;6.970;2022-09-27T10:19:29;3.13;;;2.22;;
2562;SDS011;1291;51.420;6.970;2022-09-27T10:21:58;2.65;;;2.15;;
2562;SDS011;1291;51.420;6.970;2022-09-27T10:24:58;5.35;;;2.60;;
2562;SDS011;1291;51.420;6.970;2022-09-27T10:27:37;5.22;;;2.75;;
2562;SDS011;1291;51.420;6.970;2022-09-27T10:30:03;5.43;;;2.72;;
2562;SDS011;1291;51.420;6.970;2022-09-27T10:32:30;2.75;;;2.42;;
2562;SDS011;1291;51.420;6.970;2022-09-27T10:35:19;4.65;;;2.80;;
2562;SDS011;1291;51.420;6.970;2022-09-27T10:40:51;3.08;;;2.42;;
2562;SDS011;1291;51.420;6.970;2022-09-27T10:46:02;5.55;;;2.40;;
2562;SDS011;1291;51.420;6.970;2022-09-27T10:48:37;2.70;;;2.10;;
2562;SDS011;1291;51.420;6.970;2022-09-27T10:51:06;2.22;;;2.03;;
2562;SDS011;1291;51.420;6.970;2022-09-27T10:53:45;3.33;;;2.20;;
2562;SDS011;1291;51.420;6.970;2022-09-27T10:56:22;3.17;;;1.95;;
2562;SDS011;1291;51.420;6.970;2022-09-27T10:58:51;3.20;;;1.92;;
2562;SDS011;1291;51.420;6.970;2022-09-27T11:01:19;1.70;;;1.60;;
2562;SDS011;1291;51.420;6.970;2022-09-27T11:03:46;1.70;;;1.60;;
2562;SDS011;1291;51.420;6.970;2022-09-27T11:08:55;2.60;;;1.50;;
2562;SDS011;1291;51.420;6.970;2022-09-27T11:11:34;4.57;;;1.73;;
2562;SDS011;1291;51.420;6.970;2022-09-27T11:31:09;5.10;;;1.80;;
2562;SDS011;1291;51.420;6.970;2022-09-27T11:39:55;2.88;;;2.67;;
2562;SDS011;1291;51.420;6.970;2022-09-27T12:02:44;3.85;;;2.40;;
2562;SDS011;1291;51.420;6.970;2022-09-27T12:10:47;2.40;;;2.20;;
2562;SDS011;1291;51.420;6.970;2022-09-27T12:13:17;3.53;;;2.40;;
2562;SDS011;1291;51.420;6.970;2022-09-27T12:15:54;3.15;;;2.60;;
2562;SDS011;1291;51.420;6.970;2022-09-27T12:21:12;5.60;;;2.80;;
2562;SDS011;1291;51.420;6.970;2022-09-27T12:23:41;3.13;;;2.83;;
2562;SDS011;1291;51.420;6.970;2022-09-27T12:28:53;4.03;;;2.55;;
2562;SDS011;1291;51.420;6.970;2022-09-27T12:31:35;1.90;;;1.75;;
2562;SDS011;1291;51.420;6.970;2022-09-27T12:37:18;2.97;;;2.22;;
2562;SDS011;1291;51.420;6.970;2022-09-27T12:39:57;3.60;;;2.63;;
2562;SDS011;1291;51.420;6.970;2022-09-27T12:45:12;4.03;;;3.08;;
2562;SDS011;1291;51.420;6.970;2022-09-27T12:52:42;3.45;;;3.15;;
2562;SDS011;1291;51.420;6.970;2022-09-27T13:04:03;2.50;;;2.20;;
2562;SDS011;1291;51.420;6.970;2022-09-27T13:09:32;3.05;;;2.10;;
2562;SDS011;1291;51.420;6.970;2022-09-27T13:12:05;4.03;;;2.28;;
2562;SDS011;1291;51.420;6.970;2022-09-27T13:14:38;5.10;;;2.90;;
2562;SDS011;1291;51.420;6.970;2022-09-27T13:23:00;2.95;;;2.60;;
2562;SDS011;1291;51.420;6.970;2022-09-27T13:30:55;5.28;;;3.40;;
2562;SDS011;1291;51.420;6.970;2022-09-27T13:33:29;3.67;;;2.88;;
2562;SDS011;1291;51.420;6.970;2022-09-27T13:38:41;4.57;;;2.47;;
2562;SDS011;1291;51.420;6.970;2022-09-27T13:41:27;2.92;;;2.50;;
2562;SDS011;1291;51.420;6.970;2022-09-27T13:46:30;3.45;;;2.72;;
2562;SDS011;1291;51.420;6.970;2022-09-27T13:49:35;3.15;;;2.55;;
2562;SDS011;1291;51.420;6.970;2022-09-27T13:51:59;4.03;;;2.70;;
2562;SDS011;1291;51.420;6.970;2022-09-27T13:57:00;2.75;;;2.25;;
2562;SDS011;1291;51.420;6.970;2022-09-27T13:59:40;4.00;;;2.20;;
2562;SDS011;1291;51.420;6.970;2022-09-27T14:02:16;2.13;;;1.80;;
2562;SDS011;1291;51.420;6.970;2022-09-27T14:04:48;2.65;;;1.90;;
2562;SDS011;1291;51.420;6.970;2022-09-27T14:07:22;2.13;;;1.92;;
2562;SDS011;1291;51.420;6.970;2022-09-27T14:09:53;4.97;;;2.05;;
2562;SDS011;1291;51.420;6.970;2022-09-27T14:12:32;2.55;;;1.80;;
2562;SDS011;1291;51.420;6.970;2022-09-27T14:15:03;3.63;;;1.95;;
2562;SDS011;1291;51.420;6.970;2022-09-27T14:17:32;3.60;;;2.35;;
2562;SDS011;1291;51.420;6.970;2022-09-27T14:19:58;1.48;;;1.30;;
2562;SDS011;1291;51.420;6.970;2022-09-27T14:22:25;2.05;;;1.23;;
2562;SDS011;1291;51.420;6.970;2022-09-27T14:24:51;2.15;;;1.00;;
2562;SDS011;1291;51.420;6.970;2022-09-27T14:27:21;1.40;;;1.17;;
2562;SDS011;1291;51.420;6.970;2022-09-27T14:29:57;1.42;;;0.90;;
2562;SDS011;1291;51.420;6.970;2022-09-27T14:32:30;3.25;;;1.23;;
2562;SDS011;1291;51.420;6.970;2022-09-27T14:35:01;1.95;;;1.10;;
2562;SDS011;1291;51.420;6.970;2022-09-27T14:37:56;3.65;;;1.50;;
2562;SDS011;1291;51.420;6.970;2022-09-27T14:40:30;1.63;;;1.25;;
2562;SDS011;1291;51.420;6.970;2022-09-27T14:43:00;1.15;;;0.90;;
2562;SDS011;1291;51.420;6.970;2022-09-27T14:48:01;1.80;;;0.70;;
2562;SDS011;1291;51.420;6.970;2022-09-27T14:50:48;1.70;;;0.73;;
2562;SDS011;1291;51.420;6.970;2022-09-27T14:53:22;2.05;;;0.80;;
2562;SDS011;1291;51.420;6.970;2022-09-27T14:55:49;2.28;;;1.10;;
2562;SDS011;1291;51.420;6.970;2022-09-27T14:58:18;1.42;;;0.88;;
2562;SDS011;1291;51.420;6.970;2022-09-27T15:00:46;1.10;;;0.93;;
2562;SDS011;1291;51.420;6.970;2022-09-27T15:03:16;2.58;;;0.93;;
2562;SDS011;1291;51.420;6.970;2022-09-27T15:05:48;0.88;;;0.80;;
2562;SDS011;1291;51.420;6.970;2022-09-27T15:08:14;2.22;;;0.90;;
2562;SDS011;1291;51.420;6.970;2022-09-27T15:10:42;4.53;;;1.33;;
2562;SDS011;1291;51.420;6.970;2022-09-27T15:13:10;4.43;;;1.23;;
2562;SDS011;1291;51.420;6.970;2022-09-27T15:15:39;2.47;;;0.90;;
2562;SDS011;1291;51.420;6.970;2022-09-27T15:18:28;0.85;;;0.80;;
2562;SDS011;1291;51.420;6.970;2022-09-27T15:20:56;4.18;;;1.10;;
2562;SDS011;1291;51.420;6.970;2022-09-27T15:23:26;1.17;;;0.80;;
2562;SDS011;1291;51.420;6.970;2022-09-27T15:26:14;1.58;;;0.95;;
2562;SDS011;1291;51.420;6.970;2022-09-27T15:28:51;2.15;;;0.77;;
2562;SDS011;1291;51.420;6.970;2022-09-27T15:31:17;2.47;;;1.10;;
2562;SDS011;1291;51.420;6.970;2022-09-27T15:33:56;2.42;;;1.33;;
2562;SDS011;1291;51.420;6.970;2022-09-27T15:36:47;0.80;;;0.75;;
2562;SDS011;1291;51.420;6.970;2022-09-27T15:39:11;1.63;;;1.20;;
2562;SDS011;1291;51.420;6.970;2022-09-27T15:47:02;2.67;;;1.00;;
2562;SDS011;1291;51.420;6.970;2022-09-27T15:49:30;1.77;;;1.10;;
2562;SDS011;1291;51.420;6.970;2022-09-27T15:52:00;1.52;;;1.00;;
2562;SDS011;1291;51.420;6.970;2022-09-27T15:54:28;2.85;;;1.25;;
2562;SDS011;1291;51.420;6.970;2022-09-27T15:56:56;1.95;;;1.20;;
2562;SDS011;1291;51.420;6.970;2022-09-27T15:59:26;2.35;;;1.00;;
2562;SDS011;1291;51.420;6.970;2022-09-27T16:01:56;3.50;;;1.25;;
2562;SDS011;1291;51.420;6.970;2022-09-27T16:04:24;2.22;;;1.20;;
2562;SDS011;1291;51.420;6.970;2022-09-27T16:06:51;3.50;;;1.70;;
2562;SDS011;1291;51.420;6.970;2022-09-27T16:09:21;5.20;;;1.65;;
2562;SDS011;1291;51.420;6.970;2022-09-27T16:11:47;5.57;;;1.63;;
2562;SDS011;1291;51.420;6.970;2022-09-27T16:14:14;1.98;;;1.63;;
2562;SDS011;1291;51.420;6.970;2022-09-27T16:16:47;4.70;;;1.92;;
2562;SDS011;1291;51.420;6.970;2022-09-27T16:19:15;2.75;;;1.90;;
2562;SDS011;1291;51.420;6.970;2022-09-27T16:21:40;3.10;;;1.95;;
2562;SDS011;1291;51.420;6.970;2022-09-27T16:24:09;3.42;;;2.30;;
2562;SDS011;1291;51.420;6.970;2022-09-27T16:26:35;4.75;;;2.00;;
2562;SDS011;1291;51.420;6.970;2022-09-27T16:29:02;2.60;;;1.67;;
2562;SDS011;1291;51.420;6.970;2022-09-27T16:31:27;2.90;;;1.70;;
2562;SDS011;1291;51.420;6.970;2022-09-27T16:33:53;5.38;;;2.20;;
2562;SDS011;1291;51.420;6.970;2022-09-27T16:36:18;3.42;;;1.75;;
2562;SDS011;1291;51.420;6.970;2022-09-27T16:38:48;3.55;;;1.75;;
2562;SDS011;1291;51.420;6.970;2022-09-27T16:41:15;2.95;;;1.63;;
2562;SDS011;1291;51.420;6.970;2022-09-27T16:43:41;2.60;;;1.60;;
2562;SDS011;1291;51.420;6.970;2022-09-27T16:46:15;2.95;;;1.70;;
2562;SDS011;1291;51.420;6.970;2022-09-27T16:48:43;4.38;;;1.67;;
2562;SDS011;1291;51.420;6.970;2022-09-27T16:51:11;1.35;;;1.15;;
2562;SDS011;1291;51.420;6.970;2022-09-27T16:53:57;1.17;;;1.08;;
2562;SDS011;1291;51.420;6.970;2022-09-27T16:56:22;3.28;;;1.42;;
2562;SDS011;1291;51.420;6.970;2022-09-27T16:58:48;4.60;;;1.77;;
2562;SDS011;1291;51.420;6.970;2022-09-27T17:01:13;3.17;;;1.40;;
2562;SDS011;1291;51.420;6.970;2022-09-27T17:03:41;1.17;;;1.02;;
2562;SDS011;1291;51.420;6.970;2022-09-27T17:06:07;2.08;;;1.60;;
2562;SDS011;1291;51.420;6.970;2022-09-27T17:08:33;2.13;;;1.25;;
2562;SDS011;1291;51.420;6.970;2022-09-27T17:10:58;1.58;;;1.45;;
2562;SDS011;1291;51.420;6.970;2022-09-27T17:13:24;4.90;;;1.58;;
2562;SDS011;1291;51.420;6.970;2022-09-27T17:15:50;1.33;;;1.00;;
2562;SDS011;1291;51.420;6.970;2022-09-27T17:18:15;2.20;;;0.90;;
2562;SDS011;1291;51.420;6.970;2022-09-27T17:20:41;3.17;;;1.20;;
2562;SDS011;1291;51.420;6.970;2022-09-27T17:23:06;1.30;;;1.20;;
2562;SDS011;1291;51.420;6.970;2022-09-27T17:25:32;2.97;;;1.23;;
2562;SDS011;1291;51.420;6.970;2022-09-27T17:27:58;2.53;;;1.13;;
2562;SDS011;1291;51.420;6.970;2022-09-27T17:30:24;1.98;;;1.23;;
2562;SDS011;1291;51.420;6.970;2022-09-27T17:32:50;2.33;;;1.15;;
2562;SDS011;1291;51.420;6.970;2022-09-27T17:35:15;2.97;;;1.25;;
2562;SDS011;1291;51.420;6.970;2022-09-27T17:37:41;3.45;;;1.10;;
2562;SDS011;1291;51.420;6.970;2022-09-27T17:40:09;1.55;;;1.10;;
2562;SDS011;1291;51.420;6.970;2022-09-27T17:42:35;1.63;;;0.93;;
2562;SDS011;1291;51.420;6.970;2022-09-27T17:45:01;1.95;;;1.10;;
2562;SDS011;1291;51.420;6.970;2022-09-27T17:47:27;2.13;;;1.20;;
2562;SDS011;1291;51.420;6.970;2022-09-27T17:50:11;2.53;;;1.30;;
2562;SDS011;1291;51.420;6.970;2022-09-27T17:52:53;4.28;;;1.30;;
2562;SDS011;1291;51.420;6.970;2022-09-27T17:55:20;6.10;;;1.40;;
2562;SDS011;1291;51.420;6.970;2022-09-27T17:57:46;3.67;;;1.20;;
2562;SDS011;1291;51.420;6.970;2022-09-27T18:00:13;1.63;;;1.10;;
2562;SDS011;1291;51.420;6.970;2022-09-27T18:02:42;2.67;;;1.77;;
2562;SDS011;1291;51.420;6.970;2022-09-27T18:05:09;1.25;;;1.00;;
2562;SDS011;1291;51.420;6.970;2022-09-27T18:07:35;4.30;;;1.70;;
2562;SDS011;1291;51.420;6.970;2022-09-27T18:10:01;3.00;;;1.33;;
2562;SDS011;1291;51.420;6.970;2022-09-27T18:12:27;1.98;;;1.58;;
2562;SDS011;1291;51.420;6.970;2022-09-27T18:14:56;4.32;;;1.35;;
2562;SDS011;1291;51.420;6.970;2022-09-27T18:17:22;4.47;;;1.85;;
2562;SDS011;1291;51.420;6.970;2022-09-27T18:19:48;4.13;;;1.98;;
2562;SDS011;1291;51.420;6.970;2022-09-27T18:22:14;3.38;;;1.73;;
2562;SDS011;1291;51.420;6.970;2022-09-27T18:24:39;5.82;;;1.80;;
2562;SDS011;1291;51.420;6.970;2022-09-27T18:29:38;2.63;;;1.42;;
2562;SDS011;1291;51.420;6.970;2022-09-27T18:34:39;2.60;;;1.50;;
2562;SDS011;1291;51.420;6.970;2022-09-27T18:37:05;4.93;;;1.90;;
2562;SDS011;1291;51.420;6.970;2022-09-27T18:39:32;5.03;;;1.90;;